sensor_id;sensor_type;location;lat;lon;timestamp;temperature;humidity
23102;DHT22;11720;51.214;22.574;2023-04-25T00:00:39;12.90;99.90
23102;DHT22;11720;51.214;22.574;2023-04-25T00:03:05;12.80;99.90
23102;DHT22;11720;51.214;22.574;2023-04-25T00:05:31;12.80;99.90
23102;DHT22;11720;51.214;22.574;2023-04-25T00:07:57;12.80;99.90
23102;DHT22;11720;51.214;22.574;2023-04-25T00:10:23;12.70;99.90
23102;DHT22;11720;51.214;22.574;2023-04-25T00:12:49;12.60;99.90
23102;DHT22;11720;51.214;22.574;2023-04-25T00:15:15;12.60;99.90
23102;DHT22;11720;51.214;22.574;2023-04-25T00:17:41;12.60;99.90
23102;DHT22;11720;51.214;22.574;2023-04-25T00:20:08;12.60;99.90
23102;DHT22;11720;51.214;22.574;2023-04-25T00:22:36;12.50;99.90
23102;DHT22;11720;51.214;22.574;2023-04-25T00:25:06;12.40;99.90
23102;DHT22;11720;51.214;22.574;2023-04-25T00:27:32;12.40;99.90
23102;DHT22;11720;51.214;22.574;2023-04-25T00:29:58;12.30;99.90
23102;DHT22;11720;51.214;22.574;2023-04-25T00:32:23;12.20;99.90
23102;DHT22;11720;51.214;22.574;2023-04-25T00:34:49;12.20;99.90
23102;DHT22;11720;51.214;22.574;2023-04-25T00:37:15;12.10;99.90
23102;DHT22;11720;51.214;22.574;2023-04-25T00:39:41;12.10;99.90
23102;DHT22;11720;51.214;22.574;2023-04-25T00:42:08;12.10;99.90
23102;DHT22;11720;51.214;22.574;2023-04-25T00:44:34;12.10;99.90
23102;DHT22;11720;51.214;22.574;2023-04-25T00:47:01;12.10;99.90
23102;DHT22;11720;51.214;22.574;2023-04-25T00:49:27;12.10;99.90
23102;DHT22;11720;51.214;22.574;2023-04-25T00:51:53;12.20;99.90
23102;DHT22;11720;51.214;22.574;2023-04-25T00:54:19;11.00;99.90
23102;DHT22;11720;51.214;22.574;2023-04-25T00:56:45;12.20;99.90
23102;DHT22;11720;51.214;22.574;2023-04-25T00:59:11;12.20;99.90
23102;DHT22;11720;51.214;22.574;2023-04-25T01:01:37;12.20;99.90
23102;DHT22;11720;51.214;22.574;2023-04-25T01:04:04;12.20;99.90
23102;DHT22;11720;51.214;22.574;2023-04-25T01:06:30;12.20;99.90
23102;DHT22;11720;51.214;22.574;2023-04-25T01:08:57;12.20;99.90
23102;DHT22;11720;51.214;22.574;2023-04-25T01:11:23;12.20;99.90
23102;DHT22;11720;51.214;22.574;2023-04-25T01:13:49;12.20;99.90
23102;DHT22;11720;51.214;22.574;2023-04-25T01:16:15;12.10;99.90
23102;DHT22;11720;51.214;22.574;2023-04-25T01:18:41;12.10;99.90
23102;DHT22;11720;51.214;22.574;2023-04-25T01:21:12;12.10;99.90
23102;DHT22;11720;51.214;22.574;2023-04-25T01:23:39;12.00;99.90
23102;DHT22;11720;51.214;22.574;2023-04-25T01:26:07;12.00;99.90
23102;DHT22;11720;51.214;22.574;2023-04-25T01:28:34;11.90;99.90
23102;DHT22;11720;51.214;22.574;2023-04-25T01:31:01;11.90;99.90
23102;DHT22;11720;51.214;22.574;2023-04-25T01:33:27;11.80;99.90
23102;DHT22;11720;51.214;22.574;2023-04-25T01:35:52;11.80;99.90
23102;DHT22;11720;51.214;22.574;2023-04-25T01:38:18;11.80;99.90
23102;DHT22;11720;51.214;22.574;2023-04-25T01:40:45;11.80;99.90
23102;DHT22;11720;51.214;22.574;2023-04-25T01:43:12;11.80;99.90
23102;DHT22;11720;51.214;22.574;2023-04-25T01:45:40;11.70;99.90
23102;DHT22;11720;51.214;22.574;2023-04-25T01:48:08;11.70;99.90
23102;DHT22;11720;51.214;22.574;2023-04-25T01:50:33;11.60;99.90
23102;DHT22;11720;51.214;22.574;2023-04-25T01:55:27;11.60;99.90
23102;DHT22;11720;51.214;22.574;2023-04-25T01:57:53;11.60;99.90
23102;DHT22;11720;51.214;22.574;2023-04-25T02:00:18;11.50;99.90
23102;DHT22;11720;51.214;22.574;2023-04-25T02:02:44;11.60;99.90
23102;DHT22;11720;51.214;22.574;2023-04-25T02:05:10;11.60;99.90
23102;DHT22;11720;51.214;22.574;2023-04-25T02:07:35;11.60;99.90
23102;DHT22;11720;51.214;22.574;2023-04-25T02:10:01;11.50;99.90
23102;DHT22;11720;51.214;22.574;2023-04-25T02:12:28;11.50;99.90
23102;DHT22;11720;51.214;22.574;2023-04-25T02:14:53;11.50;99.90
23102;DHT22;11720;51.214;22.574;2023-04-25T02:17:19;11.50;99.90
23102;DHT22;11720;51.214;22.574;2023-04-25T02:19:47;11.40;99.90
23102;DHT22;11720;51.214;22.574;2023-04-25T02:22:13;11.40;99.90
23102;DHT22;11720;51.214;22.574;2023-04-25T02:24:39;11.40;99.90
23102;DHT22;11720;51.214;22.574;2023-04-25T02:29:31;11.20;99.90
23102;DHT22;11720;51.214;22.574;2023-04-25T02:31:57;11.60;99.90
23102;DHT22;11720;51.214;22.574;2023-04-25T02:36:49;11.20;99.90
23102;DHT22;11720;51.214;22.574;2023-04-25T02:39:18;11.40;99.90
23102;DHT22;11720;51.214;22.574;2023-04-25T02:41:44;11.20;99.90
23102;DHT22;11720;51.214;22.574;2023-04-25T02:46:35;11.00;99.90
23102;DHT22;11720;51.214;22.574;2023-04-25T02:51:27;11.10;99.90
23102;DHT22;11720;51.214;22.574;2023-04-25T02:53:53;11.10;99.90
23102;DHT22;11720;51.214;22.574;2023-04-25T02:56:18;10.90;99.90
23102;DHT22;11720;51.214;22.574;2023-04-25T02:58:44;11.00;99.90
23102;DHT22;11720;51.214;22.574;2023-04-25T03:01:10;11.00;99.90
23102;DHT22;11720;51.214;22.574;2023-04-25T03:06:02;11.40;99.90
23102;DHT22;11720;51.214;22.574;2023-04-25T03:08:27;10.90;99.90
23102;DHT22;11720;51.214;22.574;2023-04-25T03:10:58;11.10;99.90
23102;DHT22;11720;51.214;22.574;2023-04-25T03:13:24;11.40;99.90
23102;DHT22;11720;51.214;22.574;2023-04-25T03:15:49;11.00;99.90
23102;DHT22;11720;51.214;22.574;2023-04-25T03:20:41;11.30;99.90
23102;DHT22;11720;51.214;22.574;2023-04-25T03:25:33;11.00;99.90
23102;DHT22;11720;51.214;22.574;2023-04-25T03:30:25;11.10;99.90
23102;DHT22;11720;51.214;22.574;2023-04-25T03:35:16;11.10;99.90
23102;DHT22;11720;51.214;22.574;2023-04-25T03:40:11;11.00;99.90
23102;DHT22;11720;51.214;22.574;2023-04-25T03:45:03;11.20;99.90
23102;DHT22;11720;51.214;22.574;2023-04-25T03:47:29;10.70;99.90
23102;DHT22;11720;51.214;22.574;2023-04-25T03:59:39;10.90;99.90
23102;DHT22;11720;51.214;22.574;2023-04-25T04:02:05;10.70;99.90
23102;DHT22;11720;51.214;22.574;2023-04-25T04:09:23;10.70;99.90
23102;DHT22;11720;51.214;22.574;2023-04-25T04:14:14;10.70;99.90
23102;DHT22;11720;51.214;22.574;2023-04-25T04:19:06;10.90;99.90
23102;DHT22;11720;51.214;22.574;2023-04-25T04:23:58;11.20;99.90
23102;DHT22;11720;51.214;22.574;2023-04-25T04:26:25;11.30;99.90
23102;DHT22;11720;51.214;22.574;2023-04-25T04:28:51;11.70;99.90
23102;DHT22;11720;51.214;22.574;2023-04-25T04:33:45;11.40;99.90
23102;DHT22;11720;51.214;22.574;2023-04-25T04:36:12;11.40;99.90
23102;DHT22;11720;51.214;22.574;2023-04-25T04:38:38;11.70;99.90
23102;DHT22;11720;51.214;22.574;2023-04-25T04:41:04;11.80;99.90
23102;DHT22;11720;51.214;22.574;2023-04-25T04:45:57;11.80;99.90
23102;DHT22;11720;51.214;22.574;2023-04-25T04:48:24;11.90;99.90
23102;DHT22;11720;51.214;22.574;2023-04-25T04:50:50;12.20;99.90
23102;DHT22;11720;51.214;22.574;2023-04-25T04:55:41;12.10;99.90
23102;DHT22;11720;51.214;22.574;2023-04-25T04:58:08;12.20;99.90
23102;DHT22;11720;51.214;22.574;2023-04-25T05:00:34;11.70;99.90
23102;DHT22;11720;51.214;22.574;2023-04-25T05:05:26;11.90;99.90
23102;DHT22;11720;51.214;22.574;2023-04-25T05:10:19;12.00;99.90
23102;DHT22;11720;51.214;22.574;2023-04-25T05:17:38;12.00;99.90
23102;DHT22;11720;51.214;22.574;2023-04-25T05:20:08;11.90;99.90
23102;DHT22;11720;51.214;22.574;2023-04-25T05:22:36;12.20;99.90
23102;DHT22;11720;51.214;22.574;2023-04-25T05:25:03;12.30;99.90
23102;DHT22;11720;51.214;22.574;2023-04-25T05:29:55;12.10;99.90
23102;DHT22;11720;51.214;22.574;2023-04-25T05:32:20;12.20;99.90
23102;DHT22;11720;51.214;22.574;2023-04-25T05:37:12;12.50;99.90
23102;DHT22;11720;51.214;22.574;2023-04-25T05:42:03;12.10;99.90
23102;DHT22;11720;51.214;22.574;2023-04-25T05:44:30;12.20;99.90
23102;DHT22;11720;51.214;22.574;2023-04-25T05:46:56;11.90;99.90
23102;DHT22;11720;51.214;22.574;2023-04-25T05:49:22;12.30;99.90
23102;DHT22;11720;51.214;22.574;2023-04-25T05:56:39;12.10;99.90
23102;DHT22;11720;51.214;22.574;2023-04-25T06:03:59;12.20;99.90
23102;DHT22;11720;51.214;22.574;2023-04-25T06:06:31;12.30;99.90
23102;DHT22;11720;51.214;22.574;2023-04-25T06:08:58;12.10;99.90
23102;DHT22;11720;51.214;22.574;2023-04-25T06:11:25;12.30;99.90
23102;DHT22;11720;51.214;22.574;2023-04-25T06:13:51;12.30;99.90
23102;DHT22;11720;51.214;22.574;2023-04-25T06:18:42;12.20;99.90
23102;DHT22;11720;51.214;22.574;2023-04-25T06:30:54;12.70;99.90
23102;DHT22;11720;51.214;22.574;2023-04-25T06:35:46;12.00;99.90
23102;DHT22;11720;51.214;22.574;2023-04-25T06:40:39;12.40;99.90
23102;DHT22;11720;51.214;22.574;2023-04-25T06:43:04;12.40;99.90
23102;DHT22;11720;51.214;22.574;2023-04-25T06:45:30;12.40;99.90
23102;DHT22;11720;51.214;22.574;2023-04-25T06:47:56;12.40;99.90
23102;DHT22;11720;51.214;22.574;2023-04-25T06:52:48;12.60;99.90
23102;DHT22;11720;51.214;22.574;2023-04-25T06:55:17;12.50;99.90
23102;DHT22;11720;51.214;22.574;2023-04-25T06:57:42;12.40;99.90
23102;DHT22;11720;51.214;22.574;2023-04-25T07:00:08;12.50;99.90
23102;DHT22;11720;51.214;22.574;2023-04-25T07:02:35;12.70;99.90
23102;DHT22;11720;51.214;22.574;2023-04-25T07:05:02;12.20;99.90
23102;DHT22;11720;51.214;22.574;2023-04-25T07:07:30;12.30;99.90
23102;DHT22;11720;51.214;22.574;2023-04-25T07:22:08;11.80;99.90
23102;DHT22;11720;51.214;22.574;2023-04-25T07:29:28;11.80;99.90
23102;DHT22;11720;51.214;22.574;2023-04-25T07:31:53;12.00;99.90
23102;DHT22;11720;51.214;22.574;2023-04-25T07:34:19;11.30;99.90
23102;DHT22;11720;51.214;22.574;2023-04-25T07:39:11;11.90;99.90
23102;DHT22;11720;51.214;22.574;2023-04-25T07:44:03;11.90;99.90
23102;DHT22;11720;51.214;22.574;2023-04-25T07:48:54;12.00;99.90
23102;DHT22;11720;51.214;22.574;2023-04-25T07:53:47;12.00;99.90
23102;DHT22;11720;51.214;22.574;2023-04-25T07:58:39;12.10;99.90
23102;DHT22;11720;51.214;22.574;2023-04-25T08:03:31;12.00;99.90
23102;DHT22;11720;51.214;22.574;2023-04-25T08:05:56;12.30;99.90
23102;DHT22;11720;51.214;22.574;2023-04-25T08:10:48;12.40;99.90
23102;DHT22;11720;51.214;22.574;2023-04-25T08:15:40;12.10;99.90
23102;DHT22;11720;51.214;22.574;2023-04-25T08:18:05;12.00;99.90
23102;DHT22;11720;51.214;22.574;2023-04-25T08:22:57;12.10;99.90
23102;DHT22;11720;51.214;22.574;2023-04-25T08:25:23;12.20;99.90
23102;DHT22;11720;51.214;22.574;2023-04-25T08:27:48;12.20;99.90
23102;DHT22;11720;51.214;22.574;2023-04-25T08:30:14;12.00;99.90
23102;DHT22;11720;51.214;22.574;2023-04-25T08:35:06;12.10;99.90
23102;DHT22;11720;51.214;22.574;2023-04-25T08:37:32;12.10;99.90
23102;DHT22;11720;51.214;22.574;2023-04-25T08:39:58;11.70;99.90
23102;DHT22;11720;51.214;22.574;2023-04-25T08:42:24;11.80;99.90
23102;DHT22;11720;51.214;22.574;2023-04-25T08:44:53;12.20;99.90
23102;DHT22;11720;51.214;22.574;2023-04-25T08:47:22;12.20;99.90
23102;DHT22;11720;51.214;22.574;2023-04-25T08:49:48;11.60;99.90
23102;DHT22;11720;51.214;22.574;2023-04-25T08:52:15;11.80;99.90
23102;DHT22;11720;51.214;22.574;2023-04-25T08:54:48;12.10;99.90
23102;DHT22;11720;51.214;22.574;2023-04-25T08:57:14;11.70;99.90
23102;DHT22;11720;51.214;22.574;2023-04-25T08:59:41;11.90;99.90
23102;DHT22;11720;51.214;22.574;2023-04-25T09:02:11;11.60;99.90
23102;DHT22;11720;51.214;22.574;2023-04-25T09:04:40;11.70;99.90
23102;DHT22;11720;51.214;22.574;2023-04-25T09:07:06;11.80;99.90
23102;DHT22;11720;51.214;22.574;2023-04-25T09:14:25;11.60;99.90
23102;DHT22;11720;51.214;22.574;2023-04-25T09:17:02;11.70;99.90
23102;DHT22;11720;51.214;22.574;2023-04-25T09:19:33;11.60;99.90
23102;DHT22;11720;51.214;22.574;2023-04-25T09:22:03;11.60;99.90
23102;DHT22;11720;51.214;22.574;2023-04-25T09:24:38;12.20;99.90
23102;DHT22;11720;51.214;22.574;2023-04-25T09:27:09;11.60;99.90
23102;DHT22;11720;51.214;22.574;2023-04-25T09:29:37;11.60;99.90
23102;DHT22;11720;51.214;22.574;2023-04-25T09:32:19;11.90;99.90
23102;DHT22;11720;51.214;22.574;2023-04-25T09:34:55;11.60;99.90
23102;DHT22;11720;51.214;22.574;2023-04-25T09:37:26;12.40;99.90
23102;DHT22;11720;51.214;22.574;2023-04-25T09:39:59;11.60;99.90
23102;DHT22;11720;51.214;22.574;2023-04-25T09:42:28;12.40;99.90
23102;DHT22;11720;51.214;22.574;2023-04-25T09:44:57;11.90;99.90
23102;DHT22;11720;51.214;22.574;2023-04-25T09:47:24;12.10;99.90
23102;DHT22;11720;51.214;22.574;2023-04-25T09:49:51;12.00;99.90
23102;DHT22;11720;51.214;22.574;2023-04-25T09:52:24;11.90;99.90
23102;DHT22;11720;51.214;22.574;2023-04-25T09:54:51;11.80;99.90
23102;DHT22;11720;51.214;22.574;2023-04-25T09:57:18;12.20;99.90
23102;DHT22;11720;51.214;22.574;2023-04-25T09:59:53;12.20;99.90
23102;DHT22;11720;51.214;22.574;2023-04-25T10:02:24;12.30;99.90
23102;DHT22;11720;51.214;22.574;2023-04-25T10:04:52;12.00;99.90
23102;DHT22;11720;51.214;22.574;2023-04-25T10:07:22;11.90;99.90
23102;DHT22;11720;51.214;22.574;2023-04-25T10:10:02;12.00;99.90
23102;DHT22;11720;51.214;22.574;2023-04-25T10:12:29;12.00;99.90
23102;DHT22;11720;51.214;22.574;2023-04-25T10:14:58;12.10;99.90
23102;DHT22;11720;51.214;22.574;2023-04-25T10:17:24;11.90;99.90
23102;DHT22;11720;51.214;22.574;2023-04-25T10:19:52;12.10;99.90
23102;DHT22;11720;51.214;22.574;2023-04-25T10:22:37;12.10;99.90
23102;DHT22;11720;51.214;22.574;2023-04-25T10:25:04;12.00;99.90
23102;DHT22;11720;51.214;22.574;2023-04-25T10:27:30;12.20;99.90
23102;DHT22;11720;51.214;22.574;2023-04-25T10:30:10;12.00;99.90
23102;DHT22;11720;51.214;22.574;2023-04-25T10:32:42;12.00;99.90
23102;DHT22;11720;51.214;22.574;2023-04-25T10:35:18;12.10;99.90
23102;DHT22;11720;51.214;22.574;2023-04-25T10:38:10;11.90;99.90
23102;DHT22;11720;51.214;22.574;2023-04-25T10:40:35;11.90;99.90
23102;DHT22;11720;51.214;22.574;2023-04-25T10:46:25;12.00;99.90
23102;DHT22;11720;51.214;22.574;2023-04-25T10:48:55;12.10;99.90
23102;DHT22;11720;51.214;22.574;2023-04-25T10:51:33;12.00;99.90
23102;DHT22;11720;51.214;22.574;2023-04-25T10:54:04;12.10;99.90
23102;DHT22;11720;51.214;22.574;2023-04-25T10:56:32;12.40;99.90
23102;DHT22;11720;51.214;22.574;2023-04-25T11:01:42;11.90;99.90
23102;DHT22;11720;51.214;22.574;2023-04-25T11:04:21;12.00;99.90
23102;DHT22;11720;51.214;22.574;2023-04-25T11:09:36;11.90;99.90
23102;DHT22;11720;51.214;22.574;2023-04-25T11:12:03;12.30;99.90
23102;DHT22;11720;51.214;22.574;2023-04-25T11:14:30;11.90;99.90
23102;DHT22;11720;51.214;22.574;2023-04-25T11:16:57;12.20;99.90
23102;DHT22;11720;51.214;22.574;2023-04-25T11:19:24;12.40;99.90
23102;DHT22;11720;51.214;22.574;2023-04-25T11:21:50;12.30;99.90
23102;DHT22;11720;51.214;22.574;2023-04-25T11:24:17;12.40;99.90
23102;DHT22;11720;51.214;22.574;2023-04-25T11:26:43;12.10;99.90
23102;DHT22;11720;51.214;22.574;2023-04-25T11:29:09;12.30;99.90
23102;DHT22;11720;51.214;22.574;2023-04-25T11:31:35;12.00;99.90
23102;DHT22;11720;51.214;22.574;2023-04-25T11:36:27;12.50;99.90
23102;DHT22;11720;51.214;22.574;2023-04-25T11:41:20;12.40;99.90
23102;DHT22;11720;51.214;22.574;2023-04-25T11:43:48;12.40;99.90
23102;DHT22;11720;51.214;22.574;2023-04-25T11:46:14;12.50;99.90
23102;DHT22;11720;51.214;22.574;2023-04-25T11:48:41;12.90;99.90
23102;DHT22;11720;51.214;22.574;2023-04-25T11:53:34;12.10;99.90
23102;DHT22;11720;51.214;22.574;2023-04-25T11:56:01;12.30;99.90
23102;DHT22;11720;51.214;22.574;2023-04-25T11:58:27;11.70;99.90
23102;DHT22;11720;51.214;22.574;2023-04-25T12:00:53;11.30;99.90
23102;DHT22;11720;51.214;22.574;2023-04-25T12:03:19;11.30;99.90
23102;DHT22;11720;51.214;22.574;2023-04-25T12:05:46;11.00;99.90
23102;DHT22;11720;51.214;22.574;2023-04-25T12:08:12;10.80;99.90
23102;DHT22;11720;51.214;22.574;2023-04-25T12:10:39;10.70;99.90
23102;DHT22;11720;51.214;22.574;2023-04-25T12:13:25;10.90;99.90
23102;DHT22;11720;51.214;22.574;2023-04-25T12:15:54;10.50;99.90
23102;DHT22;11720;51.214;22.574;2023-04-25T12:18:24;10.70;99.90
23102;DHT22;11720;51.214;22.574;2023-04-25T12:20:53;9.90;99.90
23102;DHT22;11720;51.214;22.574;2023-04-25T12:23:25;10.30;99.90
23102;DHT22;11720;51.214;22.574;2023-04-25T12:25:51;10.40;99.90
23102;DHT22;11720;51.214;22.574;2023-04-25T12:28:22;10.30;99.90
23102;DHT22;11720;51.214;22.574;2023-04-25T12:30:59;10.30;99.90
23102;DHT22;11720;51.214;22.574;2023-04-25T12:33:31;10.10;99.90
23102;DHT22;11720;51.214;22.574;2023-04-25T12:35:57;10.40;99.90
23102;DHT22;11720;51.214;22.574;2023-04-25T12:38:30;10.10;99.90
23102;DHT22;11720;51.214;22.574;2023-04-25T12:40:57;10.50;99.90
23102;DHT22;11720;51.214;22.574;2023-04-25T12:43:23;10.20;99.90
23102;DHT22;11720;51.214;22.574;2023-04-25T12:45:55;9.90;99.90
23102;DHT22;11720;51.214;22.574;2023-04-25T12:48:21;10.30;99.90
23102;DHT22;11720;51.214;22.574;2023-04-25T12:50:48;10.20;99.90
23102;DHT22;11720;51.214;22.574;2023-04-25T12:53:21;10.60;99.90
23102;DHT22;11720;51.214;22.574;2023-04-25T12:55:48;10.20;99.90
23102;DHT22;11720;51.214;22.574;2023-04-25T12:58:14;10.40;99.90
23102;DHT22;11720;51.214;22.574;2023-04-25T13:00:40;10.60;99.90
23102;DHT22;11720;51.214;22.574;2023-04-25T13:05:32;10.30;99.90
23102;DHT22;11720;51.214;22.574;2023-04-25T13:10:24;10.00;99.90
23102;DHT22;11720;51.214;22.574;2023-04-25T13:12:50;10.20;99.90
23102;DHT22;11720;51.214;22.574;2023-04-25T13:17:42;9.80;99.90
23102;DHT22;11720;51.214;22.574;2023-04-25T13:20:09;10.30;99.90
23102;DHT22;11720;51.214;22.574;2023-04-25T13:22:38;9.70;99.90
23102;DHT22;11720;51.214;22.574;2023-04-25T13:25:05;9.90;99.90
23102;DHT22;11720;51.214;22.574;2023-04-25T13:27:31;9.60;99.90
23102;DHT22;11720;51.214;22.574;2023-04-25T13:29:58;9.70;99.90
23102;DHT22;11720;51.214;22.574;2023-04-25T13:34:51;9.90;99.90
23102;DHT22;11720;51.214;22.574;2023-04-25T13:39:42;9.60;99.90
23102;DHT22;11720;51.214;22.574;2023-04-25T13:42:08;9.80;99.90
23102;DHT22;11720;51.214;22.574;2023-04-25T13:49:29;9.80;99.90
23102;DHT22;11720;51.214;22.574;2023-04-25T13:51:58;9.50;99.90
23102;DHT22;11720;51.214;22.574;2023-04-25T13:54:34;9.60;99.90
23102;DHT22;11720;51.214;22.574;2023-04-25T13:56:59;9.60;99.90
23102;DHT22;11720;51.214;22.574;2023-04-25T14:01:51;9.20;99.90
23102;DHT22;11720;51.214;22.574;2023-04-25T14:04:17;9.50;99.90
23102;DHT22;11720;51.214;22.574;2023-04-25T14:09:09;9.80;99.90
23102;DHT22;11720;51.214;22.574;2023-04-25T14:11:37;9.60;99.90
23102;DHT22;11720;51.214;22.574;2023-04-25T14:16:29;9.40;99.90
23102;DHT22;11720;51.214;22.574;2023-04-25T14:18:59;9.60;99.90
23102;DHT22;11720;51.214;22.574;2023-04-25T14:21:26;9.50;99.90
23102;DHT22;11720;51.214;22.574;2023-04-25T14:23:52;9.30;99.90
23102;DHT22;11720;51.214;22.574;2023-04-25T14:26:18;9.60;99.90
23102;DHT22;11720;51.214;22.574;2023-04-25T14:28:44;9.40;99.90
23102;DHT22;11720;51.214;22.574;2023-04-25T14:31:10;9.30;99.90
23102;DHT22;11720;51.214;22.574;2023-04-25T14:33:36;9.30;99.90
23102;DHT22;11720;51.214;22.574;2023-04-25T14:40:57;9.20;99.90
23102;DHT22;11720;51.214;22.574;2023-04-25T14:45:51;9.40;99.90
23102;DHT22;11720;51.214;22.574;2023-04-25T14:48:18;9.40;99.90
23102;DHT22;11720;51.214;22.574;2023-04-25T14:50:45;9.50;99.90
23102;DHT22;11720;51.214;22.574;2023-04-25T14:53:12;9.50;99.90
23102;DHT22;11720;51.214;22.574;2023-04-25T14:55:38;9.20;99.90
23102;DHT22;11720;51.214;22.574;2023-04-25T15:00:30;9.70;99.90
23102;DHT22;11720;51.214;22.574;2023-04-25T15:02:57;9.30;99.90
23102;DHT22;11720;51.214;22.574;2023-04-25T15:05:23;9.20;99.90
23102;DHT22;11720;51.214;22.574;2023-04-25T15:10:17;9.40;99.90
23102;DHT22;11720;51.214;22.574;2023-04-25T15:15:09;9.60;99.90
23102;DHT22;11720;51.214;22.574;2023-04-25T15:17:40;9.20;99.90
23102;DHT22;11720;51.214;22.574;2023-04-25T15:20:08;9.40;99.90
23102;DHT22;11720;51.214;22.574;2023-04-25T15:22:38;9.80;99.90
23102;DHT22;11720;51.214;22.574;2023-04-25T15:29:56;9.60;99.90
23102;DHT22;11720;51.214;22.574;2023-04-25T15:32:22;9.00;99.90
23102;DHT22;11720;51.214;22.574;2023-04-25T15:34:48;8.70;99.90
23102;DHT22;11720;51.214;22.574;2023-04-25T15:39:41;9.20;99.90
23102;DHT22;11720;51.214;22.574;2023-04-25T15:42:07;9.10;99.90
23102;DHT22;11720;51.214;22.574;2023-04-25T15:46:59;9.20;99.90
23102;DHT22;11720;51.214;22.574;2023-04-25T15:49:24;9.30;99.90
23102;DHT22;11720;51.214;22.574;2023-04-25T15:51:50;8.80;99.90
23102;DHT22;11720;51.214;22.574;2023-04-25T15:54:17;8.40;99.90
23102;DHT22;11720;51.214;22.574;2023-04-25T15:56:43;8.90;99.90
23102;DHT22;11720;51.214;22.574;2023-04-25T15:59:11;8.30;99.90
23102;DHT22;11720;51.214;22.574;2023-04-25T16:04:05;8.80;99.90
23102;DHT22;11720;51.214;22.574;2023-04-25T16:08:56;8.60;99.90
23102;DHT22;11720;51.214;22.574;2023-04-25T16:13:48;8.70;99.90
23102;DHT22;11720;51.214;22.574;2023-04-25T16:18:40;9.30;99.90
23102;DHT22;11720;51.214;22.574;2023-04-25T16:23:32;9.20;99.90
23102;DHT22;11720;51.214;22.574;2023-04-25T16:25:58;9.00;99.90
23102;DHT22;11720;51.214;22.574;2023-04-25T16:28:24;8.90;99.90
23102;DHT22;11720;51.214;22.574;2023-04-25T16:40:36;8.70;99.90
23102;DHT22;11720;51.214;22.574;2023-04-25T16:43:02;8.90;99.90
23102;DHT22;11720;51.214;22.574;2023-04-25T16:47:53;9.00;99.90
23102;DHT22;11720;51.214;22.574;2023-04-25T16:50:19;8.70;99.90
23102;DHT22;11720;51.214;22.574;2023-04-25T17:00:06;8.70;99.90
23102;DHT22;11720;51.214;22.574;2023-04-25T17:05:00;8.20;99.90
23102;DHT22;11720;51.214;22.574;2023-04-25T17:12:18;8.40;99.90
23102;DHT22;11720;51.214;22.574;2023-04-25T17:17:11;8.30;99.90
23102;DHT22;11720;51.214;22.574;2023-04-25T17:22:03;8.10;99.90
23102;DHT22;11720;51.214;22.574;2023-04-25T17:26:55;8.00;99.90
23102;DHT22;11720;51.214;22.574;2023-04-25T17:29:21;8.20;99.90
23102;DHT22;11720;51.214;22.574;2023-04-25T17:31:48;8.20;99.90
23102;DHT22;11720;51.214;22.574;2023-04-25T17:36:46;8.00;99.90
23102;DHT22;11720;51.214;22.574;2023-04-25T17:41:42;8.30;99.90
23102;DHT22;11720;51.214;22.574;2023-04-25T17:49:00;7.80;99.90
23102;DHT22;11720;51.214;22.574;2023-04-25T18:06:06;7.30;99.90
23102;DHT22;11720;51.214;22.574;2023-04-25T18:13:24;8.00;99.90
23102;DHT22;11720;51.214;22.574;2023-04-25T18:23:15;8.10;99.90
23102;DHT22;11720;51.214;22.574;2023-04-25T18:37:52;8.10;99.90
23102;DHT22;11720;51.214;22.574;2023-04-25T18:40:18;8.40;99.90
23102;DHT22;11720;51.214;22.574;2023-04-25T18:42:44;8.10;99.90
23102;DHT22;11720;51.214;22.574;2023-04-25T18:54:55;8.10;99.90
23102;DHT22;11720;51.214;22.574;2023-04-25T18:59:47;8.20;99.90
23102;DHT22;11720;51.214;22.574;2023-04-25T19:04:41;8.20;99.90
23102;DHT22;11720;51.214;22.574;2023-04-25T19:38:49;7.80;99.90
23102;DHT22;11720;51.214;22.574;2023-04-25T19:41:15;7.70;99.90
23102;DHT22;11720;51.214;22.574;2023-04-25T19:43:41;8.10;99.90
23102;DHT22;11720;51.214;22.574;2023-04-25T20:00:43;7.40;99.90
23102;DHT22;11720;51.214;22.574;2023-04-25T20:15:21;7.20;99.90
23102;DHT22;11720;51.214;22.574;2023-04-25T20:22:39;7.20;99.90
23102;DHT22;11720;51.214;22.574;2023-04-25T20:25:06;7.20;99.90
23102;DHT22;11720;51.214;22.574;2023-04-25T20:32:29;7.10;99.90
23102;DHT22;11720;51.214;22.574;2023-04-25T20:42:14;6.80;99.90
23102;DHT22;11720;51.214;22.574;2023-04-25T20:44:40;7.50;99.90
23102;DHT22;11720;51.214;22.574;2023-04-25T20:47:14;7.00;99.90
23102;DHT22;11720;51.214;22.574;2023-04-25T21:33:40;6.80;99.90
23102;DHT22;11720;51.214;22.574;2023-04-25T21:45:51;6.70;99.90
23102;DHT22;11720;51.214;22.574;2023-04-25T22:07:53;6.50;99.90
23102;DHT22;11720;51.214;22.574;2023-04-25T22:10:20;6.50;99.90
23102;DHT22;11720;51.214;22.574;2023-04-25T22:15:19;6.50;99.90
23102;DHT22;11720;51.214;22.574;2023-04-25T22:20:13;6.30;99.90
23102;DHT22;11720;51.214;22.574;2023-04-25T22:22:40;6.50;99.90
23102;DHT22;11720;51.214;22.574;2023-04-25T22:25:06;6.90;99.90
23102;DHT22;11720;51.214;22.574;2023-04-25T22:39:46;6.40;99.90
23102;DHT22;11720;51.214;22.574;2023-04-25T22:44:37;6.30;99.90
23102;DHT22;11720;51.214;22.574;2023-04-25T22:47:03;6.10;99.90
23102;DHT22;11720;51.214;22.574;2023-04-25T22:51:55;6.50;99.90
23102;DHT22;11720;51.214;22.574;2023-04-25T23:21:10;6.40;99.90
23102;DHT22;11720;51.214;22.574;2023-04-25T23:23:37;6.20;99.90
23102;DHT22;11720;51.214;22.574;2023-04-25T23:26:09;6.60;99.90
23102;DHT22;11720;51.214;22.574;2023-04-25T23:31:04;6.40;99.90
23102;DHT22;11720;51.214;22.574;2023-04-25T23:40:48;6.60;99.90
23102;DHT22;11720;51.214;22.574;2023-04-25T23:50:37;6.40;99.90
